Time;durP1;ratioP1;P1;durP2;ratioP2;P2;SDS_P1;SDS_P2;PMS_P1;PMS_P2;Temp;Humidity;BMP_temperature;BMP_pressure;BME280_temperature;BME280_humidity;BME280_pressure;Samples;Min_cycle;Max_cycle;Signal;HPM_P1;HPM_P2
2024/04/22 00:00:31;;;;;;;10.95;6.07;;;;;;;3.64;76.20;92606.59;2028006;70;20177;-70
2024/04/22 00:02:57;;;;;;;8.82;6.45;;;;;;;3.65;76.04;92606.03;2028089;70;20491;-70
2024/04/22 00:05:23;;;;;;;9.07;6.50;;;;;;;3.71;76.14;92598.19;2027957;70;20159;-70
2024/04/22 00:07:48;;;;;;;9.23;6.00;;;;;;;3.80;76.07;92600.34;2027669;70;20225;-70
2024/04/22 00:10:14;;;;;;;6.68;5.03;;;;;;;3.82;76.36;92592.16;2027438;70;20199;-70
2024/04/22 00:12:40;;;;;;;7.82;5.68;;;;;;;3.80;76.47;92594.78;2028111;70;20151;-68
2024/04/22 00:15:06;;;;;;;6.28;5.38;;;;;;;3.74;76.94;92593.53;2027934;70;20586;-71
2024/04/22 00:17:31;;;;;;;6.53;5.20;;;;;;;3.78;76.56;92591.06;2027995;70;20213;-69
2024/04/22 00:19:58;;;;;;;6.95;5.05;;;;;;;3.85;76.03;92593.06;2025105;70;20153;-71
2024/04/22 00:22:23;;;;;;;9.45;7.28;;;;;;;3.91;74.49;92593.56;2028105;70;20216;-70
2024/04/22 00:24:49;;;;;;;14.27;8.75;;;;;;;3.92;74.10;92594.31;2028015;70;20169;-71
2024/04/22 00:27:14;;;;;;;12.57;8.90;;;;;;;3.88;74.23;92596.75;2028087;70;20152;-70
2024/04/22 00:29:40;;;;;;;11.68;8.27;;;;;;;3.90;74.85;92596.94;2028023;70;20160;-70
2024/04/22 00:32:06;;;;;;;10.32;7.85;;;;;;;3.77;75.30;92586.81;2027865;70;20264;-71
2024/04/22 00:34:31;;;;;;;11.15;7.85;;;;;;;3.87;75.33;92598.81;2027597;70;20169;-70
2024/04/22 00:36:58;;;;;;;10.45;7.50;;;;;;;3.81;75.05;92601.81;2027822;70;20240;-71
2024/04/22 00:39:24;;;;;;;10.75;7.82;;;;;;;3.83;75.39;92601.25;2027855;70;20157;-71
2024/04/22 00:41:49;;;;;;;10.80;7.60;;;;;;;3.78;75.76;92607.78;2027885;70;20141;-72
2024/04/22 00:44:15;;;;;;;9.93;7.18;;;;;;;3.80;75.17;92591.25;2028098;70;20141;-71
2024/04/22 00:46:41;;;;;;;10.07;7.15;;;;;;;3.81;75.82;92601.81;2027867;70;20587;-71
2024/04/22 00:49:07;;;;;;;10.80;7.53;;;;;;;3.75;75.90;92590.16;2027949;70;20261;-71
2024/04/22 00:51:33;;;;;;;9.45;7.05;;;;;;;3.75;76.26;92595.00;2027762;70;20242;-70
2024/04/22 00:54:00;;;;;;;11.50;7.90;;;;;;;3.77;76.19;92601.47;2028055;70;20624;-70
2024/04/22 00:56:28;;;;;;;6.65;5.03;;;;;;;3.67;74.97;92599.91;2027920;70;20725;-70
2024/04/22 00:58:57;;;;;;;5.75;4.20;;;;;;;3.65;75.17;92600.44;2027776;70;20518;-69
2024/04/22 01:01:24;;;;;;;5.28;3.72;;;;;;;3.76;73.94;92600.00;2028308;70;20153;-70
2024/04/22 01:03:50;;;;;;;7.50;4.82;;;;;;;3.64;73.99;92579.50;2027951;70;20183;-71
2024/04/22 01:06:18;;;;;;;6.80;4.68;;;;;;;3.77;74.89;92587.56;2027945;70;20156;-71
2024/04/22 01:08:45;;;;;;;6.53;4.60;;;;;;;3.71;75.13;92586.28;2028054;70;20196;-72
2024/04/22 01:11:11;;;;;;;8.80;4.60;;;;;;;3.73;74.62;92584.44;2028129;70;20149;-71
2024/04/22 01:13:38;;;;;;;5.75;4.13;;;;;;;3.59;74.80;92585.31;2028049;70;20236;-73
2024/04/22 01:16:04;;;;;;;4.43;3.80;;;;;;;3.24;75.77;92576.81;2028475;70;20153;-72
2024/04/22 01:18:29;;;;;;;5.53;3.30;;;;;;;3.53;74.67;92582.75;2028054;70;20222;-70
2024/04/22 01:20:55;;;;;;;3.83;3.00;;;;;;;3.53;74.44;92582.75;2027974;70;20180;-71
2024/04/22 01:23:21;;;;;;;3.78;2.80;;;;;;;3.39;74.68;92570.41;2028237;70;20637;-70
2024/04/22 01:25:53;;;;;;;2.10;1.90;;;;;;;3.02;75.62;92572.84;2028417;70;20237;-71
2024/04/22 01:28:18;;;;;;;2.30;1.70;;;;;;;2.65;77.66;92572.50;2028493;70;20168;-73
2024/04/22 01:30:44;;;;;;;4.13;2.42;;;;;;;2.85;77.12;92567.22;2028224;70;20275;-70
2024/04/22 01:33:10;;;;;;;3.92;2.97;;;;;;;3.08;76.71;92567.84;2025253;70;20156;-70
2024/04/22 01:35:35;;;;;;;3.20;2.72;;;;;;;3.17;76.41;92539.41;2028523;70;20594;-71
2024/04/22 01:38:01;;;;;;;3.70;2.70;;;;;;;3.02;76.15;92565.28;2027959;70;20172;-71
2024/04/22 01:40:26;;;;;;;3.85;3.05;;;;;;;3.10;76.52;92556.13;2028378;70;20602;-72
2024/04/22 01:42:52;;;;;;;4.25;3.00;;;;;;;3.20;76.58;92559.78;2027923;70;20148;-72
2024/04/22 01:45:17;;;;;;;3.58;2.70;;;;;;;3.21;76.34;92550.16;2028298;70;20251;-72
2024/04/22 01:47:43;;;;;;;3.42;2.63;;;;;;;3.24;75.81;92552.50;2027908;70;20164;-73
2024/04/22 01:50:09;;;;;;;5.00;2.78;;;;;;;3.09;76.63;92549.09;2028393;70;20160;-70
2024/04/22 01:52:38;;;;;;;3.33;2.70;;;;;;;2.94;77.13;92530.47;2028331;70;20541;-70
2024/04/22 01:55:04;;;;;;;3.78;2.88;;;;;;;3.23;76.46;92537.13;2028484;70;20172;-69
2024/04/22 01:57:29;;;;;;;3.85;2.85;;;;;;;2.88;77.67;92549.41;2030260;70;20160;-70
2024/04/22 01:59:55;;;;;;;5.38;2.70;;;;;;;2.66;79.19;92543.41;2027915;70;20169;-69
2024/04/22 02:02:21;;;;;;;5.38;3.20;;;;;;;2.44;80.22;92536.66;2028261;70;20549;-70
2024/04/22 02:04:48;;;;;;;3.38;2.92;;;;;;;2.70;79.55;92534.66;2028148;70;20586;-70
2024/04/22 02:07:14;;;;;;;3.55;2.78;;;;;;;2.77;79.63;92542.25;2028158;70;20321;-72
2024/04/22 02:09:40;;;;;;;3.88;2.17;;;;;;;2.91;78.58;92539.94;2027970;70;20153;-71
2024/04/22 02:12:05;;;;;;;4.00;2.40;;;;;;;2.72;78.55;92529.28;2028187;70;20172;-73
2024/04/22 02:14:35;;;;;;;5.03;2.63;;;;;;;2.25;81.03;92514.88;2027943;70;20157;-72
2024/04/22 02:17:01;;;;;;;2.95;2.65;;;;;;;2.55;81.15;92524.38;2028163;70;20145;-71
2024/04/22 02:19:27;;;;;;;3.17;2.33;;;;;;;2.67;79.48;92521.91;2028273;70;20160;-73
2024/04/22 02:21:52;;;;;;;2.20;1.80;;;;;;;2.39;79.96;92522.97;2028322;70;20137;-71
2024/04/22 02:24:18;;;;;;;2.88;1.90;;;;;;;2.45;80.05;92529.78;2027614;70;20161;-71
2024/04/22 02:26:44;;;;;;;2.05;1.85;;;;;;;2.65;79.57;92521.72;2028136;70;20167;-70
2024/04/22 02:29:10;;;;;;;3.38;2.08;;;;;;;2.95;78.07;92518.03;2027870;70;20156;-72
2024/04/22 02:31:36;;;;;;;2.92;2.10;;;;;;;2.83;78.21;92526.06;2028188;70;20621;-70
2024/04/22 02:34:02;;;;;;;2.00;1.80;;;;;;;3.05;76.76;92518.91;2028483;70;20151;-69
2024/04/22 02:36:28;;;;;;;2.35;2.10;;;;;;;3.04;77.27;92520.22;2028144;70;20137;-71
2024/04/22 02:38:54;;;;;;;3.63;2.35;;;;;;;3.00;77.04;92526.16;2028130;70;20268;-68
2024/04/22 02:41:22;;;;;;;4.40;2.42;;;;;;;2.93;77.83;92520.63;2027985;70;20152;-70
2024/04/22 02:43:49;;;;;;;2.40;2.00;;;;;;;3.08;76.66;92508.69;2028061;70;20149;-71
2024/04/22 02:46:19;;;;;;;3.72;2.05;;;;;;;3.15;76.18;92514.19;2028178;70;20652;-70
2024/04/22 02:48:48;;;;;;;4.57;1.90;;;;;;;3.02;76.41;92517.25;2028156;70;20163;-70
2024/04/22 02:51:23;;;;;;;2.95;1.92;;;;;;;2.92;77.38;92506.00;2028506;70;20149;-71
2024/04/22 02:53:50;;;;;;;3.55;2.25;;;;;;;2.84;77.64;92507.34;2028082;70;20163;-72
2024/04/22 02:56:16;;;;;;;3.28;2.10;;;;;;;2.87;77.52;92504.19;2027956;70;20148;-71
2024/04/22 02:58:45;;;;;;;3.65;2.30;;;;;;;2.95;77.81;92513.22;2028192;70;20180;-70
2024/04/22 03:01:16;;;;;;;4.03;2.40;;;;;;;3.11;76.45;92511.06;2028387;70;20243;-70
2024/04/22 03:03:46;;;;;;;3.20;2.35;;;;;;;3.16;76.00;92506.56;2028396;70;20120;-71
2024/04/22 03:06:11;;;;;;;3.55;2.50;;;;;;;3.23;76.27;92503.00;2025112;70;20199;-71
2024/04/22 03:08:41;;;;;;;2.88;2.50;;;;;;;3.27;75.16;92506.88;2024628;70;20529;-70
2024/04/22 03:11:07;;;;;;;3.08;2.60;;;;;;;3.26;74.79;92494.28;2028229;70;20247;-70
2024/04/22 03:13:33;;;;;;;5.82;2.80;;;;;;;3.24;75.62;92502.44;2028047;70;20229;-70
2024/04/22 03:15:59;;;;;;;4.13;2.80;;;;;;;3.23;76.52;92508.56;2027474;70;20626;-71
2024/04/22 03:18:24;;;;;;;4.38;2.50;;;;;;;3.25;75.98;92505.94;2027941;70;20133;-72
2024/04/22 03:20:53;;;;;;;2.97;2.38;;;;;;;3.10;76.34;92503.28;2028016;70;20590;-70
2024/04/22 03:23:19;;;;;;;3.33;2.55;;;;;;;3.25;75.68;92500.38;2025075;70;20559;-72
2024/04/22 03:25:45;;;;;;;3.10;2.65;;;;;;;2.83;76.83;92483.63;2027724;70;20201;-72
2024/04/22 03:28:10;;;;;;;3.30;2.60;;;;;;;2.97;77.11;92493.91;2023731;70;20211;-71
2024/04/22 03:30:40;;;;;;;5.18;2.75;;;;;;;3.19;76.74;92495.06;2023853;71;20153;-72
2024/04/22 03:33:05;;;;;;;5.72;2.70;;;;;;;3.27;76.25;92492.22;2024889;71;20214;-74
2024/04/22 03:35:33;;;;;;;3.17;2.63;;;;;;;3.17;76.12;92491.38;2024440;71;20188;-73
2024/04/22 03:37:58;;;;;;;3.17;2.80;;;;;;;3.31;76.25;92498.13;2025084;71;20141;-73
2024/04/22 03:40:24;;;;;;;4.03;3.03;;;;;;;3.19;76.83;92489.50;2021649;71;20220;-71
2024/04/22 03:42:49;;;;;;;3.03;2.60;;;;;;;3.22;76.66;92496.72;2024798;71;20145;-70
2024/04/22 03:45:15;;;;;;;4.22;3.15;;;;;;;3.02;77.15;92497.78;2023838;71;20217;-71
2024/04/22 03:50:26;;;;;;;5.38;3.08;;;;;;;2.59;79.86;92494.16;2024830;71;20213;-70
2024/04/22 03:52:52;;;;;;;3.42;2.80;;;;;;;2.70;78.72;92482.63;2024914;71;20596;-70
2024/04/22 03:55:18;;;;;;;3.50;2.85;;;;;;;2.86;78.27;92493.63;2024877;71;20240;-72
2024/04/22 03:57:44;;;;;;;4.03;2.90;;;;;;;2.88;78.10;92488.22;2026286;70;20263;-72
2024/04/22 04:00:09;;;;;;;13.60;8.40;;;;;;;2.86;78.36;92494.38;2028253;70;20175;-70
2024/04/22 04:02:38;;;;;;;9.15;5.95;;;;;;;2.82;78.70;92488.47;2024542;70;20559;-70
2024/04/22 04:05:04;;;;;;;6.43;4.70;;;;;;;3.09;76.61;92491.44;2028180;70;20155;-72
2024/04/22 04:07:29;;;;;;;5.68;4.47;;;;;;;3.11;76.56;92488.81;2028146;70;20583;-70
2024/04/22 04:09:55;;;;;;;4.70;3.70;;;;;;;3.15;77.10;92497.50;2028389;70;20221;-70
2024/04/22 04:12:20;;;;;;;6.75;3.63;;;;;;;2.78;78.46;92483.28;2024976;70;20648;-71
2024/04/22 04:14:46;;;;;;;8.75;5.40;;;;;;;2.72;78.70;92485.56;2028422;70;20231;-70
2024/04/22 04:17:12;;;;;;;7.97;4.57;;;;;;;2.60;79.44;92492.84;2027410;70;20277;-70
2024/04/22 04:19:37;;;;;;;8.13;4.60;;;;;;;2.75;78.92;92489.25;2028279;70;20155;-70
2024/04/22 04:22:03;;;;;;;5.82;3.92;;;;;;;2.87;78.31;92487.50;2028317;70;20151;-70
2024/04/22 04:24:29;;;;;;;6.63;4.07;;;;;;;2.95;77.89;92488.19;2028390;70;20292;-72
2024/04/22 04:26:54;;;;;;;7.90;4.57;;;;;;;2.57;79.16;92493.22;2028094;70;20586;-72
2024/04/22 04:29:20;;;;;;;7.13;4.80;;;;;;;2.76;78.16;92502.59;2024624;70;20151;-72
2024/04/22 04:31:46;;;;;;;8.90;5.50;;;;;;;2.76;79.23;92494.25;2028184;70;20188;-71
2024/04/22 04:34:13;;;;;;;9.80;6.15;;;;;;;2.66;79.90;92498.22;2028163;70;20192;-72
2024/04/22 04:36:39;;;;;;;8.52;5.75;;;;;;;2.77;79.58;92495.72;2027906;70;20184;-76
2024/04/22 04:39:04;;;;;;;8.25;5.15;;;;;;;2.76;78.81;92497.03;2028780;70;20585;-73
2024/04/22 04:41:30;;;;;;;8.45;5.07;;;;;;;3.01;77.46;92493.53;2028756;70;20288;-74
2024/04/22 04:43:55;;;;;;;6.50;4.95;;;;;;;3.19;77.06;92502.66;2028848;70;20153;-72
2024/04/22 04:46:21;;;;;;;6.38;4.40;;;;;;;2.50;79.79;92501.06;2028468;70;20196;-70
2024/04/22 04:48:46;;;;;;;7.75;4.50;;;;;;;2.95;78.30;92501.34;2028468;70;20141;-70
2024/04/22 04:51:12;;;;;;;6.30;4.30;;;;;;;3.05;76.79;92502.94;2028500;70;20141;-71
2024/04/22 04:53:38;;;;;;;7.03;4.20;;;;;;;3.12;77.00;92489.56;2028796;70;20161;-71
2024/04/22 04:56:04;;;;;;;5.07;3.90;;;;;;;3.27;76.60;92492.22;2028856;70;20152;-71
2024/04/22 04:58:29;;;;;;;6.53;4.13;;;;;;;3.11;77.86;92497.16;2028817;70;20181;-72
2024/04/22 05:00:55;;;;;;;9.10;6.00;;;;;;;2.91;78.80;92498.22;2028672;70;20173;-73
2024/04/22 05:03:21;;;;;;;8.40;4.93;;;;;;;3.12;78.50;92501.44;2028705;70;20268;-72
2024/04/22 05:05:58;;;;;;;7.70;4.75;;;;;;;3.21;77.14;92500.06;2028438;70;20260;-71
2024/04/22 05:08:24;;;;;;;7.75;4.53;;;;;;;2.78;78.18;92461.03;2028478;70;20171;-74
2024/04/22 05:10:50;;;;;;;6.03;4.15;;;;;;;2.85;78.90;92495.69;2025018;70;20578;-72
2024/04/22 05:13:15;;;;;;;6.57;4.18;;;;;;;2.59;80.66;92499.72;2028476;70;20267;-73
2024/04/22 05:15:41;;;;;;;9.23;4.85;;;;;;;2.85;79.53;92497.72;2028447;70;20176;-73
2024/04/22 05:18:06;;;;;;;9.63;5.57;;;;;;;2.96;79.07;92491.72;2028569;70;20149;-71
2024/04/22 05:20:32;;;;;;;21.40;7.65;;;;;;;2.91;79.04;92492.66;2028547;70;20520;-73
2024/04/22 05:22:58;;;;;;;17.55;6.60;;;;;;;2.77;79.52;92494.97;2028416;70;20225;-71
2024/04/22 05:25:23;;;;;;;18.35;7.00;;;;;;;2.84;79.62;92499.00;2028569;70;20228;-70
2024/04/22 05:27:49;;;;;;;9.57;5.13;;;;;;;2.73;80.09;92498.16;2028762;70;20148;-71
2024/04/22 05:30:14;;;;;;;8.82;5.70;;;;;;;2.99;79.43;92493.38;2028541;70;20152;-70
2024/04/22 05:32:41;;;;;;;12.32;5.60;;;;;;;2.94;79.88;92497.84;2025500;70;20236;-73
2024/04/22 05:37:52;;;;;;;11.07;6.10;;;;;;;2.99;79.52;92496.13;2028671;70;20128;-73
2024/04/22 05:40:18;;;;;;;10.77;5.90;;;;;;;2.77;80.44;92497.75;2028636;70;20156;-73
2024/04/22 05:42:43;;;;;;;8.05;5.13;;;;;;;2.89;80.28;92498.81;2028418;70;20175;-70
2024/04/22 05:45:09;;;;;;;8.18;5.97;;;;;;;3.22;78.83;92493.19;2024887;70;20494;-72
2024/04/22 05:47:34;;;;;;;6.85;5.07;;;;;;;3.52;76.81;92492.91;2028610;70;20137;-70
2024/04/22 05:50:02;;;;;;;6.97;5.05;;;;;;;3.54;76.05;92490.31;2028541;70;20327;-70
2024/04/22 05:52:27;;;;;;;10.35;5.53;;;;;;;3.76;75.34;92491.41;2028486;70;20153;-71
2024/04/22 05:54:53;;;;;;;10.00;5.85;;;;;;;3.17;77.55;92486.56;2028646;70;20159;-72
2024/04/22 05:57:19;;;;;;;9.23;5.43;;;;;;;3.23;78.00;92487.06;2028428;70;20606;-72
2024/04/22 05:59:44;;;;;;;8.25;4.97;;;;;;;3.60;76.34;92489.34;2028277;70;20137;-69
2024/04/22 06:02:10;;;;;;;7.65;5.35;;;;;;;3.69;76.41;92485.91;2028337;70;20156;-69
2024/04/22 06:04:36;;;;;;;5.93;4.70;;;;;;;4.00;76.09;92497.50;2028536;70;20534;-70
2024/04/22 06:07:02;;;;;;;7.43;4.93;;;;;;;4.17;75.44;92482.81;2028499;70;20553;-70
2024/04/22 06:09:28;;;;;;;6.45;5.00;;;;;;;4.40;74.04;92502.81;2028578;70;20128;-72
2024/04/22 06:11:53;;;;;;;8.43;5.25;;;;;;;4.47;73.75;92501.22;2028499;70;20158;-70
2024/04/22 06:14:19;;;;;;;7.63;5.38;;;;;;;4.50;72.38;92486.13;2028250;70;20555;-70
2024/04/22 06:16:45;;;;;;;7.38;5.32;;;;;;;4.27;73.03;92500.34;2027574;70;20160;-71
2024/04/22 06:19:10;;;;;;;6.20;5.18;;;;;;;3.43;76.34;92501.16;2028460;70;20160;-70
2024/04/22 06:21:36;;;;;;;8.00;5.10;;;;;;;3.49;76.17;92504.47;2028419;70;20133;-70
2024/04/22 06:24:02;;;;;;;6.43;4.95;;;;;;;3.86;76.13;92501.91;2028571;70;20553;-71
2024/04/22 06:26:28;;;;;;;6.85;4.80;;;;;;;3.86;75.32;92501.91;2028486;70;20141;-70
2024/04/22 06:28:54;;;;;;;5.93;4.90;;;;;;;3.74;76.26;92488.44;2028493;70;20239;-72
2024/04/22 06:31:20;;;;;;;6.20;4.85;;;;;;;4.22;74.88;92507.66;2028154;70;20331;-70
2024/04/22 06:33:46;;;;;;;6.72;4.80;;;;;;;4.50;71.92;92500.06;2028410;70;20145;-71
2024/04/22 06:36:12;;;;;;;6.05;4.55;;;;;;;4.66;72.74;92501.34;2028428;70;20526;-70
2024/04/22 06:38:39;;;;;;;9.93;6.22;;;;;;;4.55;72.74;92501.88;2028440;70;20172;-70
2024/04/22 06:41:05;;;;;;;8.65;6.15;;;;;;;4.65;72.45;92504.72;2028487;70;20156;-73
2024/04/22 06:43:31;;;;;;;5.90;5.03;;;;;;;4.64;72.23;92506.78;2028407;70;20628;-72
2024/04/22 06:45:57;;;;;;;6.57;5.10;;;;;;;4.73;72.42;92500.53;2028059;70;20305;-71
2024/04/22 06:48:23;;;;;;;7.88;5.05;;;;;;;4.83;71.90;92497.78;2028358;70;20255;-70
2024/04/22 06:50:51;;;;;;;5.18;4.30;;;;;;;4.51;73.40;92510.66;2028392;70;20136;-69
2024/04/22 06:53:17;;;;;;;5.35;4.30;;;;;;;4.62;72.13;92500.28;2028470;70;20650;-69
2024/04/22 06:55:43;;;;;;;7.38;4.28;;;;;;;4.69;71.75;92505.03;2028428;70;20209;-70
2024/04/22 06:58:09;;;;;;;5.13;4.07;;;;;;;3.99;73.32;92496.75;2028571;70;20184;-70
2024/04/22 07:00:34;;;;;;;5.65;4.50;;;;;;;4.45;73.19;92495.50;2028349;70;20229;-70
2024/04/22 07:03:00;;;;;;;5.07;4.15;;;;;;;4.57;71.67;92499.97;2028322;70;20237;-70
2024/04/22 07:05:26;;;;;;;6.60;5.18;;;;;;;4.51;72.30;92496.72;2024888;70;20156;-70
2024/04/22 07:07:52;;;;;;;6.25;4.95;;;;;;;4.57;72.82;92505.53;2028337;70;20686;-71
2024/04/22 07:10:17;;;;;;;7.13;4.95;;;;;;;4.53;73.14;92496.13;2025150;70;20206;-71
2024/04/22 07:12:43;;;;;;;5.50;4.57;;;;;;;4.22;73.46;92490.94;2025054;70;20238;-70
2024/04/22 07:15:09;;;;;;;5.70;4.47;;;;;;;4.92;71.72;92496.38;2028346;70;20153;-71
2024/04/22 07:17:35;;;;;;;5.25;3.88;;;;;;;4.89;71.70;92501.03;2028151;70;20163;-70
2024/04/22 07:20:01;;;;;;;7.40;4.90;;;;;;;5.09;71.70;92496.31;2028503;70;20161;-70
2024/04/22 07:22:28;;;;;;;7.72;5.72;;;;;;;5.15;71.35;92501.63;2028478;70;20141;-73
2024/04/22 07:24:55;;;;;;;7.60;5.57;;;;;;;5.17;71.36;92501.75;2028518;70;20567;-71
2024/04/22 07:27:21;;;;;;;6.90;5.30;;;;;;;5.42;70.88;92502.31;2028702;70;20172;-71
2024/04/22 07:29:48;;;;;;;6.45;4.47;;;;;;;5.44;70.25;92512.88;2028384;70;20157;-70
2024/04/22 07:32:14;;;;;;;5.07;4.10;;;;;;;5.37;70.35;92500.53;2028172;70;20467;-71
2024/04/22 07:34:40;;;;;;;5.55;4.32;;;;;;;5.62;69.96;92503.09;2028247;70;20165;-70
2024/04/22 07:37:15;;;;;;;5.03;4.22;;;;;;;5.74;69.61;92498.44;2028300;70;20252;-72
2024/04/22 07:39:42;;;;;;;5.40;4.20;;;;;;;5.47;70.41;92498.50;2028328;70;20168;-74
2024/04/22 07:42:07;;;;;;;4.90;3.80;;;;;;;5.73;70.45;92501.81;2028232;70;20611;-70
2024/04/22 07:44:33;;;;;;;3.85;3.33;;;;;;;5.99;68.97;92500.28;2024725;70;20152;-72
2024/04/22 07:46:58;;;;;;;4.07;3.22;;;;;;;6.21;66.72;92498.38;2028343;70;20253;-70
2024/04/22 07:49:24;;;;;;;3.00;2.70;;;;;;;6.38;66.94;92501.03;2028622;70;20184;-71
2024/04/22 07:51:50;;;;;;;4.25;3.13;;;;;;;6.49;66.43;92494.84;2024629;70;20220;-71
2024/04/22 07:54:17;;;;;;;4.43;3.78;;;;;;;6.31;66.74;92496.31;2028167;70;20161;-71
2024/04/22 07:56:46;;;;;;;5.50;4.25;;;;;;;6.48;66.34;92498.25;2028272;70;20192;-71
2024/04/22 07:59:12;;;;;;;6.53;4.70;;;;;;;6.37;65.61;92499.56;2028275;70;20270;-70
2024/04/22 08:01:38;;;;;;;6.28;4.88;;;;;;;5.55;68.75;92495.59;2028189;70;20268;-71
2024/04/22 08:04:05;;;;;;;5.10;4.22;;;;;;;6.20;66.89;92497.66;2028238;70;20217;-70
2024/04/22 08:06:39;;;;;;;4.93;4.20;;;;;;;6.51;66.76;92495.00;2028178;70;20456;-70
2024/04/22 08:09:05;;;;;;;4.10;2.92;;;;;;;6.29;65.23;92496.91;2028589;70;20153;-71
2024/04/22 08:11:31;;;;;;;4.20;3.50;;;;;;;6.27;67.18;92485.56;2027945;70;20258;-71
2024/04/22 08:13:56;;;;;;;4.82;4.10;;;;;;;6.37;66.33;92488.38;2028423;70;20148;-71
2024/04/22 08:16:22;;;;;;;5.90;4.20;;;;;;;5.57;68.23;92493.69;2028568;70;20168;-72
2024/04/22 08:18:47;;;;;;;5.70;4.20;;;;;;;5.37;67.05;92452.34;2028415;70;20468;-71
2024/04/22 08:21:13;;;;;;;5.60;4.22;;;;;;;6.11;66.31;92493.53;2028213;70;20163;-71
2024/04/22 08:23:41;;;;;;;10.50;5.53;;;;;;;6.67;65.45;92495.41;2028294;70;20467;-70
2024/04/22 08:26:06;;;;;;;11.93;5.50;;;;;;;7.11;64.97;92486.66;2024686;70;20152;-70
2024/04/22 08:28:32;;;;;;;10.07;5.93;;;;;;;6.49;65.84;92488.53;2027140;70;20688;-71
2024/04/22 08:31:05;;;;;;;15.57;7.30;;;;;;;6.77;63.13;92482.16;2027971;70;20164;-71
2024/04/22 08:33:30;;;;;;;15.23;7.35;;;;;;;6.48;64.15;92484.25;2028146;70;20156;-70
2024/04/22 08:35:56;;;;;;;6.97;4.57;;;;;;;6.45;64.89;92482.63;2028169;70;20148;-71
2024/04/22 08:38:23;;;;;;;7.38;4.88;;;;;;;5.93;67.26;92483.78;2028135;70;20629;-71
2024/04/22 08:40:48;;;;;;;6.28;3.70;;;;;;;5.93;65.58;92480.28;2028412;70;20244;-72
2024/04/22 08:43:15;;;;;;;6.57;4.70;;;;;;;5.17;67.84;92471.78;2028013;70;20260;-70
2024/04/22 08:45:45;;;;;;;6.30;4.35;;;;;;;6.21;67.21;92479.56;2024207;70;20152;-70
2024/04/22 08:48:11;;;;;;;4.03;3.40;;;;;;;6.31;64.67;92476.75;2028212;70;20139;-73
2024/04/22 08:50:38;;;;;;;2.63;1.90;;;;;;;6.29;62.38;92471.75;2028037;70;20145;-71
2024/04/22 08:53:05;;;;;;;4.63;2.80;;;;;;;7.43;62.23;92472.69;2024541;70;20150;-72
2024/04/22 08:55:31;;;;;;;4.15;3.00;;;;;;;7.94;61.07;92479.63;2028028;70;20157;-71
2024/04/22 08:57:56;;;;;;;3.15;2.78;;;;;;;7.82;60.80;92473.94;2028119;70;20267;-70
2024/04/22 09:00:22;;;;;;;3.92;3.33;;;;;;;7.41;63.10;92469.72;2024304;70;20175;-70
2024/04/22 09:02:48;;;;;;;3.75;3.05;;;;;;;7.56;62.87;92472.16;2024792;70;20176;-70
2024/04/22 09:05:13;;;;;;;3.28;2.78;;;;;;;7.68;61.00;92475.78;2028023;70;20144;-70
2024/04/22 09:07:39;;;;;;;4.03;3.00;;;;;;;7.13;61.48;92475.56;2028036;70;20211;-72
2024/04/22 09:10:05;;;;;;;3.67;3.13;;;;;;;7.42;62.94;92462.78;2027908;70;20175;-71
2024/04/22 09:12:30;;;;;;;3.53;3.15;;;;;;;7.89;59.48;92473.03;2028109;70;20208;-70
2024/04/22 09:15:02;;;;;;;4.13;3.33;;;;;;;7.20;61.03;92470.41;2028129;70;20180;-70
2024/04/22 09:17:28;;;;;;;3.50;3.20;;;;;;;7.51;61.03;92448.00;2028071;70;20567;-72
2024/04/22 09:19:54;;;;;;;4.80;3.00;;;;;;;7.93;60.97;92464.16;2024717;70;20240;-71
2024/04/22 09:22:19;;;;;;;5.10;3.60;;;;;;;8.34;59.98;92461.22;2025006;70;20601;-72
2024/04/22 09:24:45;;;;;;;4.03;3.33;;;;;;;8.31;57.92;92460.34;2028587;70;20161;-70
2024/04/22 09:27:11;;;;;;;3.28;2.92;;;;;;;8.23;59.30;92454.19;2025032;70;20151;-71
2024/04/22 09:29:43;;;;;;;4.47;3.10;;;;;;;8.56;58.64;92459.13;2028554;70;20555;-70
2024/04/22 09:32:13;;;;;;;3.42;2.85;;;;;;;8.30;59.07;92458.88;2028424;70;20559;-70
2024/04/22 09:34:43;;;;;;;3.55;2.92;;;;;;;7.58;59.04;92455.50;2028399;70;20487;-70
2024/04/22 09:37:09;;;;;;;2.83;2.38;;;;;;;7.96;58.84;92454.53;2024649;70;20220;-70
2024/04/22 09:39:37;;;;;;;3.78;2.33;;;;;;;7.71;57.55;92460.59;2028343;70;20152;-72
2024/04/22 09:42:04;;;;;;;4.82;3.40;;;;;;;7.55;59.15;92460.22;2028641;70;20145;-74
2024/04/22 09:44:30;;;;;;;3.15;2.50;;;;;;;7.39;59.34;92462.66;2028337;70;20221;-72
2024/04/22 09:46:56;;;;;;;2.80;2.35;;;;;;;7.95;57.92;92461.47;2028267;70;20152;-71
2024/04/22 09:49:24;;;;;;;2.50;2.30;;;;;;;7.77;59.05;92463.06;2028532;70;20610;-70
2024/04/22 09:51:51;;;;;;;2.95;2.50;;;;;;;8.36;57.52;92464.13;2028481;70;20173;-70
2024/04/22 09:54:16;;;;;;;2.47;2.25;;;;;;;8.83;57.29;92458.72;2028338;70;20184;-72
2024/04/22 09:56:45;;;;;;;3.50;2.85;;;;;;;9.07;56.83;92460.28;2028504;70;20614;-74
2024/04/22 09:59:11;;;;;;;2.97;2.65;;;;;;;8.32;58.04;92430.22;2028611;70;20597;-72
2024/04/22 10:01:37;;;;;;;3.53;2.40;;;;;;;8.60;58.15;92462.19;2028462;70;20168;-72
2024/04/22 10:04:03;;;;;;;2.47;2.28;;;;;;;8.62;56.93;92463.06;2028472;70;20209;-71
2024/04/22 10:06:29;;;;;;;3.53;2.60;;;;;;;8.82;57.17;92451.66;2022353;70;20163;-71
2024/04/22 10:08:58;;;;;;;3.20;2.90;;;;;;;9.06;57.42;92452.44;2028557;70;20252;-71
2024/04/22 10:11:30;;;;;;;3.42;3.03;;;;;;;7.82;57.64;92451.53;2024718;70;20631;-70
2024/04/22 10:13:56;;;;;;;3.42;2.90;;;;;;;8.04;57.79;92443.13;2028417;70;20229;-71
2024/04/22 10:16:22;;;;;;;4.53;2.42;;;;;;;8.11;56.59;92451.34;2028411;70;20157;-72
2024/04/22 10:18:48;;;;;;;6.20;2.40;;;;;;;7.96;58.28;92442.59;2028333;70;20152;-71
2024/04/22 10:21:14;;;;;;;2.70;2.28;;;;;;;8.10;57.67;92443.53;2024980;70;20539;-72
2024/04/22 10:23:40;;;;;;;3.15;2.40;;;;;;;8.19;57.02;92436.38;2028630;70;20160;-70
2024/04/22 10:26:18;;;;;;;2.88;2.28;;;;;;;8.13;56.25;92437.44;2028663;70;20141;-69
2024/04/22 10:28:45;;;;;;;5.90;3.00;;;;;;;8.74;56.18;92429.41;2028504;70;20149;-69
2024/04/22 10:31:21;;;;;;;3.45;3.03;;;;;;;9.02;56.63;92433.25;2027918;70;20152;-71
2024/04/22 10:33:46;;;;;;;3.20;2.50;;;;;;;9.07;56.70;92420.19;2028165;70;20180;-72
2024/04/22 10:36:12;;;;;;;3.60;2.45;;;;;;;9.33;55.80;92415.47;2028636;70;20206;-71
2024/04/22 10:38:38;;;;;;;3.22;2.78;;;;;;;8.47;57.55;92426.28;2028716;70;20141;-73
2024/04/22 10:41:04;;;;;;;3.03;2.13;;;;;;;9.03;56.06;92415.09;2028606;70;20153;-71
2024/04/22 10:43:30;;;;;;;2.97;2.40;;;;;;;8.41;57.32;92407.00;2028487;70;20160;-70
2024/04/22 10:45:57;;;;;;;3.22;1.90;;;;;;;8.13;57.73;92406.59;2028126;70;20185;-71
2024/04/22 10:48:24;;;;;;;1.60;1.50;;;;;;;7.93;57.01;92408.09;2027526;70;20168;-70
2024/04/22 10:50:50;;;;;;;2.90;1.60;;;;;;;7.94;56.88;92411.63;2028410;70;20263;-70
2024/04/22 10:53:16;;;;;;;2.17;1.50;;;;;;;7.99;56.25;92411.28;2028574;70;20272;-70
2024/04/22 10:55:43;;;;;;;2.13;1.92;;;;;;;8.75;55.00;92408.44;2024962;70;20240;-73
2024/04/22 10:58:09;;;;;;;2.10;1.90;;;;;;;8.97;55.01;92402.72;2028593;70;20231;-75
2024/04/22 11:00:35;;;;;;;2.50;1.70;;;;;;;8.79;54.28;92389.03;2028357;70;20247;-71
2024/04/22 11:03:01;;;;;;;2.10;1.88;;;;;;;9.51;54.43;92394.09;2027745;70;20170;-71
2024/04/22 11:05:27;;;;;;;2.30;1.85;;;;;;;9.78;54.37;92381.59;2028175;70;20327;-72
2024/04/22 11:07:53;;;;;;;2.55;1.85;;;;;;;10.05;54.35;92393.03;2028309;70;20156;-71
2024/04/22 11:10:20;;;;;;;3.92;2.50;;;;;;;9.87;53.66;92377.91;2028579;70;20547;-72
2024/04/22 11:12:47;;;;;;;2.58;2.33;;;;;;;9.65;54.21;92389.31;2028355;70;20490;-73
2024/04/22 11:15:12;;;;;;;3.35;2.60;;;;;;;9.08;54.74;92390.81;2028481;70;20653;-74
2024/04/22 11:17:38;;;;;;;3.47;2.20;;;;;;;9.34;54.46;92381.13;2028542;70;20217;-74
2024/04/22 11:20:08;;;;;;;2.35;1.80;;;;;;;9.36;54.48;92367.22;2028371;70;20156;-71
2024/04/22 11:22:35;;;;;;;2.38;1.85;;;;;;;9.51;54.70;92380.03;2027994;70;20168;-72
2024/04/22 11:25:03;;;;;;;1.83;1.48;;;;;;;9.59;55.51;92379.78;2028294;70;20311;-70
2024/04/22 11:27:31;;;;;;;2.20;1.40;;;;;;;9.44;53.89;92372.59;2028553;70;20149;-72
2024/04/22 11:29:56;;;;;;;1.75;1.65;;;;;;;8.12;55.14;92376.38;2028293;70;20168;-69
2024/04/22 11:32:24;;;;;;;2.75;1.30;;;;;;;8.31;55.63;92358.63;2028670;70;20205;-71
2024/04/22 11:34:50;;;;;;;2.80;1.55;;;;;;;8.32;54.90;92374.13;2028412;70;20650;-70
2024/04/22 11:37:17;;;;;;;1.48;1.30;;;;;;;7.99;55.91;92376.94;2028541;70;20153;-72
2024/04/22 11:39:42;;;;;;;1.50;1.40;;;;;;;7.96;56.16;92378.84;2028374;70;20252;-74
2024/04/22 11:42:08;;;;;;;1.73;1.50;;;;;;;7.52;57.19;92365.47;2024723;70;20149;-73